sensor_id;sensor_type;location;lat;lon;timestamp;P1;durP1;ratioP1;P2;durP2;ratioP2
26042;SDS011;13818;52.156;5.382;2023-04-24T00:01:54;2.67;;;1.15;;
26042;SDS011;13818;52.156;5.382;2023-04-24T00:04:21;2.38;;;0.88;;
26042;SDS011;13818;52.156;5.382;2023-04-24T00:06:52;3.10;;;0.80;;
26042;SDS011;13818;52.156;5.382;2023-04-24T00:09:22;1.83;;;0.90;;
26042;SDS011;13818;52.156;5.382;2023-04-24T00:11:48;2.22;;;0.90;;
26042;SDS011;13818;52.156;5.382;2023-04-24T00:14:15;1.60;;;0.80;;
26042;SDS011;13818;52.156;5.382;2023-04-24T00:16:42;1.80;;;0.80;;
26042;SDS011;13818;52.156;5.382;2023-04-24T00:19:08;0.85;;;0.63;;
26042;SDS011;13818;52.156;5.382;2023-04-24T00:21:37;2.35;;;1.25;;
26042;SDS011;13818;52.156;5.382;2023-04-24T00:24:05;1.92;;;0.65;;
26042;SDS011;13818;52.156;5.382;2023-04-24T00:26:34;3.30;;;0.80;;
26042;SDS011;13818;52.156;5.382;2023-04-24T00:29:00;1.25;;;0.57;;
26042;SDS011;13818;52.156;5.382;2023-04-24T00:31:29;2.67;;;0.82;;
26042;SDS011;13818;52.156;5.382;2023-04-24T00:33:55;2.33;;;0.83;;
26042;SDS011;13818;52.156;5.382;2023-04-24T00:36:22;2.90;;;0.80;;
26042;SDS011;13818;52.156;5.382;2023-04-24T00:38:48;3.97;;;1.10;;
26042;SDS011;13818;52.156;5.382;2023-04-24T00:41:16;3.95;;;1.00;;
26042;SDS011;13818;52.156;5.382;2023-04-24T00:43:43;1.75;;;1.02;;
26042;SDS011;13818;52.156;5.382;2023-04-24T00:46:10;2.83;;;1.00;;
26042;SDS011;13818;52.156;5.382;2023-04-24T00:48:36;2.33;;;1.02;;
26042;SDS011;13818;52.156;5.382;2023-04-24T00:51:04;6.50;;;1.33;;
26042;SDS011;13818;52.156;5.382;2023-04-24T00:53:31;2.28;;;1.10;;
26042;SDS011;13818;52.156;5.382;2023-04-24T00:55:58;2.47;;;1.20;;
26042;SDS011;13818;52.156;5.382;2023-04-24T00:58:27;2.05;;;0.95;;
26042;SDS011;13818;52.156;5.382;2023-04-24T01:00:54;2.35;;;1.20;;
26042;SDS011;13818;52.156;5.382;2023-04-24T01:03:23;2.67;;;1.50;;
26042;SDS011;13818;52.156;5.382;2023-04-24T01:05:52;2.47;;;1.30;;
26042;SDS011;13818;52.156;5.382;2023-04-24T01:08:20;3.33;;;1.98;;
26042;SDS011;13818;52.156;5.382;2023-04-24T01:10:49;2.22;;;1.50;;
26042;SDS011;13818;52.156;5.382;2023-04-24T01:13:17;3.22;;;1.70;;
26042;SDS011;13818;52.156;5.382;2023-04-24T01:15:46;2.78;;;1.70;;
26042;SDS011;13818;52.156;5.382;2023-04-24T01:18:13;4.68;;;2.22;;
26042;SDS011;13818;52.156;5.382;2023-04-24T01:20:40;4.97;;;1.92;;
26042;SDS011;13818;52.156;5.382;2023-04-24T01:23:10;4.32;;;2.20;;
26042;SDS011;13818;52.156;5.382;2023-04-24T01:25:36;3.90;;;1.92;;
26042;SDS011;13818;52.156;5.382;2023-04-24T01:28:03;3.83;;;1.92;;
26042;SDS011;13818;52.156;5.382;2023-04-24T01:30:31;4.35;;;2.10;;
26042;SDS011;13818;52.156;5.382;2023-04-24T01:32:58;4.05;;;2.05;;
26042;SDS011;13818;52.156;5.382;2023-04-24T01:35:25;3.90;;;2.28;;
26042;SDS011;13818;52.156;5.382;2023-04-24T01:37:52;3.85;;;2.03;;
26042;SDS011;13818;52.156;5.382;2023-04-24T01:40:19;4.20;;;2.17;;
26042;SDS011;13818;52.156;5.382;2023-04-24T01:42:46;4.10;;;2.58;;
26042;SDS011;13818;52.156;5.382;2023-04-24T01:45:13;7.40;;;2.53;;
26042;SDS011;13818;52.156;5.382;2023-04-24T01:47:39;6.30;;;3.08;;
26042;SDS011;13818;52.156;5.382;2023-04-24T01:50:07;5.72;;;3.10;;
26042;SDS011;13818;52.156;5.382;2023-04-24T01:52:34;4.75;;;2.90;;
26042;SDS011;13818;52.156;5.382;2023-04-24T01:55:01;4.18;;;2.50;;
26042;SDS011;13818;52.156;5.382;2023-04-24T01:57:30;5.47;;;2.85;;
26042;SDS011;13818;52.156;5.382;2023-04-24T01:59:57;6.50;;;3.40;;
26042;SDS011;13818;52.156;5.382;2023-04-24T02:02:24;8.70;;;3.15;;
26042;SDS011;13818;52.156;5.382;2023-04-24T02:04:52;5.47;;;3.08;;
26042;SDS011;13818;52.156;5.382;2023-04-24T02:07:19;6.28;;;3.20;;
26042;SDS011;13818;52.156;5.382;2023-04-24T02:09:45;6.88;;;3.20;;
26042;SDS011;13818;52.156;5.382;2023-04-24T02:12:12;5.95;;;3.58;;
26042;SDS011;13818;52.156;5.382;2023-04-24T02:14:39;4.68;;;2.92;;
26042;SDS011;13818;52.156;5.382;2023-04-24T02:17:07;7.00;;;3.42;;
26042;SDS011;13818;52.156;5.382;2023-04-24T02:19:33;6.47;;;3.13;;
26042;SDS011;13818;52.156;5.382;2023-04-24T02:22:00;5.63;;;2.92;;
26042;SDS011;13818;52.156;5.382;2023-04-24T02:24:26;5.53;;;3.13;;
26042;SDS011;13818;52.156;5.382;2023-04-24T02:26:53;6.38;;;2.92;;
26042;SDS011;13818;52.156;5.382;2023-04-24T02:29:19;5.70;;;2.97;;
26042;SDS011;13818;52.156;5.382;2023-04-24T02:31:47;4.65;;;3.05;;
26042;SDS011;13818;52.156;5.382;2023-04-24T02:34:14;4.75;;;2.65;;
26042;SDS011;13818;52.156;5.382;2023-04-24T02:36:41;6.90;;;3.50;;
26042;SDS011;13818;52.156;5.382;2023-04-24T02:39:07;6.07;;;3.33;;
26042;SDS011;13818;52.156;5.382;2023-04-24T02:41:34;6.47;;;3.15;;
26042;SDS011;13818;52.156;5.382;2023-04-24T02:44:01;5.68;;;2.50;;
26042;SDS011;13818;52.156;5.382;2023-04-24T02:46:27;5.85;;;3.03;;
26042;SDS011;13818;52.156;5.382;2023-04-24T02:48:55;5.60;;;2.70;;
26042;SDS011;13818;52.156;5.382;2023-04-24T02:51:21;5.25;;;2.72;;
26042;SDS011;13818;52.156;5.382;2023-04-24T02:53:48;4.78;;;2.30;;
26042;SDS011;13818;52.156;5.382;2023-04-24T02:56:14;6.85;;;3.20;;
26042;SDS011;13818;52.156;5.382;2023-04-24T02:58:41;4.88;;;2.88;;
26042;SDS011;13818;52.156;5.382;2023-04-24T03:01:08;5.78;;;2.72;;
26042;SDS011;13818;52.156;5.382;2023-04-24T03:03:35;5.95;;;3.05;;
26042;SDS011;13818;52.156;5.382;2023-04-24T03:06:04;7.18;;;3.38;;
26042;SDS011;13818;52.156;5.382;2023-04-24T03:08:31;6.85;;;3.00;;
26042;SDS011;13818;52.156;5.382;2023-04-24T03:10:57;5.05;;;2.28;;
26042;SDS011;13818;52.156;5.382;2023-04-24T03:13:24;4.53;;;2.00;;
26042;SDS011;13818;52.156;5.382;2023-04-24T03:15:50;4.65;;;2.15;;
26042;SDS011;13818;52.156;5.382;2023-04-24T03:18:18;4.03;;;2.03;;
26042;SDS011;13818;52.156;5.382;2023-04-24T03:20:45;3.63;;;1.88;;
26042;SDS011;13818;52.156;5.382;2023-04-24T03:23:13;5.97;;;1.95;;
26042;SDS011;13818;52.156;5.382;2023-04-24T03:25:40;5.68;;;1.70;;
26042;SDS011;13818;52.156;5.382;2023-04-24T03:28:07;7.38;;;1.45;;
26042;SDS011;13818;52.156;5.382;2023-04-24T03:30:34;5.53;;;1.63;;
26042;SDS011;13818;52.156;5.382;2023-04-24T03:33:01;2.97;;;1.67;;
26042;SDS011;13818;52.156;5.382;2023-04-24T03:35:27;2.92;;;1.27;;
26042;SDS011;13818;52.156;5.382;2023-04-24T03:37:53;3.50;;;1.50;;
26042;SDS011;13818;52.156;5.382;2023-04-24T03:40:21;3.08;;;1.45;;
26042;SDS011;13818;52.156;5.382;2023-04-24T03:42:48;2.50;;;1.30;;
26042;SDS011;13818;52.156;5.382;2023-04-24T03:45:14;2.65;;;1.30;;
26042;SDS011;13818;52.156;5.382;2023-04-24T03:47:41;2.60;;;1.23;;
26042;SDS011;13818;52.156;5.382;2023-04-24T03:50:07;2.00;;;1.00;;
26042;SDS011;13818;52.156;5.382;2023-04-24T03:52:35;2.30;;;1.17;;
26042;SDS011;13818;52.156;5.382;2023-04-24T03:55:01;4.38;;;1.00;;
26042;SDS011;13818;52.156;5.382;2023-04-24T03:57:29;2.70;;;1.08;;
26042;SDS011;13818;52.156;5.382;2023-04-24T03:59:55;1.92;;;0.85;;
26042;SDS011;13818;52.156;5.382;2023-04-24T04:02:22;2.08;;;1.00;;
26042;SDS011;13818;52.156;5.382;2023-04-24T04:04:49;3.83;;;1.10;;
26042;SDS011;13818;52.156;5.382;2023-04-24T04:07:15;1.50;;;0.82;;
26042;SDS011;13818;52.156;5.382;2023-04-24T04:09:42;2.35;;;1.02;;
26042;SDS011;13818;52.156;5.382;2023-04-24T04:12:08;1.88;;;0.70;;
26042;SDS011;13818;52.156;5.382;2023-04-24T04:14:36;1.95;;;0.98;;
26042;SDS011;13818;52.156;5.382;2023-04-24T04:17:03;2.72;;;0.80;;
26042;SDS011;13818;52.156;5.382;2023-04-24T04:19:29;3.42;;;0.90;;
26042;SDS011;13818;52.156;5.382;2023-04-24T04:21:56;2.13;;;0.77;;
26042;SDS011;13818;52.156;5.382;2023-04-24T04:24:22;2.83;;;1.10;;
26042;SDS011;13818;52.156;5.382;2023-04-24T04:26:49;2.75;;;0.82;;
26042;SDS011;13818;52.156;5.382;2023-04-24T04:29:16;4.03;;;1.30;;
26042;SDS011;13818;52.156;5.382;2023-04-24T04:31:44;3.55;;;1.42;;
26042;SDS011;13818;52.156;5.382;2023-04-24T04:34:10;4.20;;;1.38;;
26042;SDS011;13818;52.156;5.382;2023-04-24T04:36:37;5.47;;;1.60;;
26042;SDS011;13818;52.156;5.382;2023-04-24T04:39:06;2.37;;;1.50;;
26042;SDS011;13818;52.156;5.382;2023-04-24T04:41:32;6.85;;;2.45;;
26042;SDS011;13818;52.156;5.382;2023-04-24T04:44:00;4.47;;;1.50;;
26042;SDS011;13818;52.156;5.382;2023-04-24T04:46:29;3.30;;;1.58;;
26042;SDS011;13818;52.156;5.382;2023-04-24T04:48:59;4.00;;;1.67;;
26042;SDS011;13818;52.156;5.382;2023-04-24T04:51:25;4.25;;;2.20;;
26042;SDS011;13818;52.156;5.382;2023-04-24T04:53:52;4.70;;;2.00;;
26042;SDS011;13818;52.156;5.382;2023-04-24T04:56:18;6.25;;;2.53;;
26042;SDS011;13818;52.156;5.382;2023-04-24T04:58:45;5.72;;;2.20;;
26042;SDS011;13818;52.156;5.382;2023-04-24T05:01:12;8.63;;;2.85;;
26042;SDS011;13818;52.156;5.382;2023-04-24T05:03:38;7.78;;;2.75;;
26042;SDS011;13818;52.156;5.382;2023-04-24T05:06:07;5.32;;;2.40;;
26042;SDS011;13818;52.156;5.382;2023-04-24T05:08:34;5.40;;;2.78;;
26042;SDS011;13818;52.156;5.382;2023-04-24T05:11:00;7.63;;;2.95;;
26042;SDS011;13818;52.156;5.382;2023-04-24T05:13:27;8.63;;;3.47;;
26042;SDS011;13818;52.156;5.382;2023-04-24T05:15:54;7.95;;;2.53;;
26042;SDS011;13818;52.156;5.382;2023-04-24T05:18:20;7.22;;;2.75;;
26042;SDS011;13818;52.156;5.382;2023-04-24T05:20:47;6.88;;;3.17;;
26042;SDS011;13818;52.156;5.382;2023-04-24T05:23:16;11.63;;;3.50;;
26042;SDS011;13818;52.156;5.382;2023-04-24T05:25:42;11.90;;;3.03;;
26042;SDS011;13818;52.156;5.382;2023-04-24T05:28:09;8.68;;;3.10;;
26042;SDS011;13818;52.156;5.382;2023-04-24T05:30:35;6.95;;;2.90;;
26042;SDS011;13818;52.156;5.382;2023-04-24T05:33:02;8.07;;;3.08;;
26042;SDS011;13818;52.156;5.382;2023-04-24T05:35:28;8.02;;;3.00;;
26042;SDS011;13818;52.156;5.382;2023-04-24T05:37:57;7.57;;;3.22;;
26042;SDS011;13818;52.156;5.382;2023-04-24T05:40:25;7.93;;;3.37;;
26042;SDS011;13818;52.156;5.382;2023-04-24T05:42:51;6.80;;;3.08;;
26042;SDS011;13818;52.156;5.382;2023-04-24T05:45:18;5.50;;;2.55;;
26042;SDS011;13818;52.156;5.382;2023-04-24T05:47:44;8.38;;;2.97;;
26042;SDS011;13818;52.156;5.382;2023-04-24T05:50:11;11.73;;;3.33;;
26042;SDS011;13818;52.156;5.382;2023-04-24T05:52:37;5.90;;;2.80;;
26042;SDS011;13818;52.156;5.382;2023-04-24T05:55:04;8.25;;;2.80;;
26042;SDS011;13818;52.156;5.382;2023-04-24T05:57:32;6.43;;;1.73;;
26042;SDS011;13818;52.156;5.382;2023-04-24T05:59:59;4.97;;;1.80;;
26042;SDS011;13818;52.156;5.382;2023-04-24T06:02:25;3.88;;;1.52;;
26042;SDS011;13818;52.156;5.382;2023-04-24T06:04:52;4.90;;;1.35;;
26042;SDS011;13818;52.156;5.382;2023-04-24T06:07:19;1.92;;;1.00;;
26042;SDS011;13818;52.156;5.382;2023-04-24T06:09:46;3.78;;;1.13;;
26042;SDS011;13818;52.156;5.382;2023-04-24T06:12:12;2.70;;;1.27;;
26042;SDS011;13818;52.156;5.382;2023-04-24T06:14:40;2.30;;;1.17;;
26042;SDS011;13818;52.156;5.382;2023-04-24T06:17:06;1.23;;;0.60;;
26042;SDS011;13818;52.156;5.382;2023-04-24T06:19:33;2.85;;;1.10;;
26042;SDS011;13818;52.156;5.382;2023-04-24T06:22:00;3.13;;;0.80;;
26042;SDS011;13818;52.156;5.382;2023-04-24T06:24:27;4.15;;;0.82;;
26042;SDS011;13818;52.156;5.382;2023-04-24T06:26:53;1.35;;;0.60;;
26042;SDS011;13818;52.156;5.382;2023-04-24T06:29:21;5.03;;;1.02;;
26042;SDS011;13818;52.156;5.382;2023-04-24T06:31:49;2.85;;;1.33;;
26042;SDS011;13818;52.156;5.382;2023-04-24T06:34:16;4.32;;;1.83;;
26042;SDS011;13818;52.156;5.382;2023-04-24T06:36:42;3.88;;;1.30;;
26042;SDS011;13818;52.156;5.382;2023-04-24T06:39:09;4.65;;;1.75;;
26042;SDS011;13818;52.156;5.382;2023-04-24T06:41:35;9.50;;;4.28;;
26042;SDS011;13818;52.156;5.382;2023-04-24T06:44:02;12.95;;;4.07;;
26042;SDS011;13818;52.156;5.382;2023-04-24T06:46:28;10.70;;;4.57;;
26042;SDS011;13818;52.156;5.382;2023-04-24T06:48:57;13.43;;;5.30;;
26042;SDS011;13818;52.156;5.382;2023-04-24T06:51:23;13.75;;;6.15;;
26042;SDS011;13818;52.156;5.382;2023-04-24T06:53:51;14.05;;;6.35;;
26042;SDS011;13818;52.156;5.382;2023-04-24T06:56:17;14.32;;;6.13;;
26042;SDS011;13818;52.156;5.382;2023-04-24T06:58:44;17.15;;;6.53;;
26042;SDS011;13818;52.156;5.382;2023-04-24T07:01:11;15.65;;;6.18;;
26042;SDS011;13818;52.156;5.382;2023-04-24T07:03:37;17.40;;;6.35;;
26042;SDS011;13818;52.156;5.382;2023-04-24T07:06:05;18.05;;;7.07;;
26042;SDS011;13818;52.156;5.382;2023-04-24T07:08:32;12.80;;;6.05;;
26042;SDS011;13818;52.156;5.382;2023-04-24T07:10:59;16.90;;;6.95;;
26042;SDS011;13818;52.156;5.382;2023-04-24T07:13:26;14.85;;;6.20;;
26042;SDS011;13818;52.156;5.382;2023-04-24T07:15:53;19.88;;;6.90;;
26042;SDS011;13818;52.156;5.382;2023-04-24T07:18:21;19.15;;;6.45;;
26042;SDS011;13818;52.156;5.382;2023-04-24T07:20:48;17.00;;;6.88;;
26042;SDS011;13818;52.156;5.382;2023-04-24T07:23:16;19.00;;;6.40;;
26042;SDS011;13818;52.156;5.382;2023-04-24T07:25:43;16.23;;;6.10;;
26042;SDS011;13818;52.156;5.382;2023-04-24T07:28:11;17.25;;;6.78;;
26042;SDS011;13818;52.156;5.382;2023-04-24T07:30:37;16.80;;;6.30;;
26042;SDS011;13818;52.156;5.382;2023-04-24T07:33:04;14.60;;;6.25;;
26042;SDS011;13818;52.156;5.382;2023-04-24T07:35:32;17.25;;;6.13;;
26042;SDS011;13818;52.156;5.382;2023-04-24T07:37:59;14.85;;;5.55;;
26042;SDS011;13818;52.156;5.382;2023-04-24T07:40:27;16.27;;;5.85;;
26042;SDS011;13818;52.156;5.382;2023-04-24T07:42:53;20.38;;;5.72;;
26042;SDS011;13818;52.156;5.382;2023-04-24T07:45:19;14.77;;;5.82;;
26042;SDS011;13818;52.156;5.382;2023-04-24T07:47:49;13.10;;;5.40;;
26042;SDS011;13818;52.156;5.382;2023-04-24T07:50:17;14.80;;;6.05;;
26042;SDS011;13818;52.156;5.382;2023-04-24T07:52:44;15.10;;;5.25;;
26042;SDS011;13818;52.156;5.382;2023-04-24T07:55:10;20.90;;;6.55;;
26042;SDS011;13818;52.156;5.382;2023-04-24T07:57:38;15.15;;;5.78;;
26042;SDS011;13818;52.156;5.382;2023-04-24T08:00:05;21.38;;;6.40;;
26042;SDS011;13818;52.156;5.382;2023-04-24T08:02:33;12.90;;;5.53;;
26042;SDS011;13818;52.156;5.382;2023-04-24T08:04:59;19.25;;;5.40;;
26042;SDS011;13818;52.156;5.382;2023-04-24T08:07:26;14.18;;;5.68;;
26042;SDS011;13818;52.156;5.382;2023-04-24T08:09:52;18.05;;;5.60;;
26042;SDS011;13818;52.156;5.382;2023-04-24T08:12:19;17.65;;;4.35;;
26042;SDS011;13818;52.156;5.382;2023-04-24T08:14:48;12.45;;;4.07;;
26042;SDS011;13818;52.156;5.382;2023-04-24T08:17:14;14.18;;;4.07;;
26042;SDS011;13818;52.156;5.382;2023-04-24T08:19:42;9.40;;;3.53;;
26042;SDS011;13818;52.156;5.382;2023-04-24T08:22:13;15.00;;;3.28;;
26042;SDS011;13818;52.156;5.382;2023-04-24T08:24:39;9.40;;;3.28;;
26042;SDS011;13818;52.156;5.382;2023-04-24T08:27:06;15.75;;;2.85;;
26042;SDS011;13818;52.156;5.382;2023-04-24T08:29:32;10.05;;;2.50;;
26042;SDS011;13818;52.156;5.382;2023-04-24T08:32:00;11.75;;;3.15;;
26042;SDS011;13818;52.156;5.382;2023-04-24T08:34:27;11.52;;;2.95;;
26042;SDS011;13818;52.156;5.382;2023-04-24T08:36:53;7.13;;;2.60;;
26042;SDS011;13818;52.156;5.382;2023-04-24T08:39:20;10.43;;;3.30;;
26042;SDS011;13818;52.156;5.382;2023-04-24T08:41:46;16.25;;;3.05;;
26042;SDS011;13818;52.156;5.382;2023-04-24T08:44:14;8.07;;;2.50;;
26042;SDS011;13818;52.156;5.382;2023-04-24T08:46:42;6.97;;;2.50;;
26042;SDS011;13818;52.156;5.382;2023-04-24T08:49:11;10.88;;;3.42;;
26042;SDS011;13818;52.156;5.382;2023-04-24T08:51:39;11.33;;;2.90;;
26042;SDS011;13818;52.156;5.382;2023-04-24T08:54:05;14.50;;;2.33;;
26042;SDS011;13818;52.156;5.382;2023-04-24T08:56:33;9.48;;;2.33;;
26042;SDS011;13818;52.156;5.382;2023-04-24T08:59:02;9.35;;;1.45;;
26042;SDS011;13818;52.156;5.382;2023-04-24T09:01:29;10.57;;;2.25;;
26042;SDS011;13818;52.156;5.382;2023-04-24T09:03:58;13.93;;;2.40;;
26042;SDS011;13818;52.156;5.382;2023-04-24T09:06:29;11.38;;;2.03;;
26042;SDS011;13818;52.156;5.382;2023-04-24T09:08:58;14.30;;;2.25;;
26042;SDS011;13818;52.156;5.382;2023-04-24T09:13:54;12.05;;;1.88;;
26042;SDS011;13818;52.156;5.382;2023-04-24T09:16:21;10.00;;;2.63;;
26042;SDS011;13818;52.156;5.382;2023-04-24T09:18:49;7.10;;;1.90;;
26042;SDS011;13818;52.156;5.382;2023-04-24T09:21:17;8.10;;;1.40;;
26042;SDS011;13818;52.156;5.382;2023-04-24T09:23:47;10.98;;;1.70;;
26042;SDS011;13818;52.156;5.382;2023-04-24T09:26:23;10.57;;;1.83;;
26042;SDS011;13818;52.156;5.382;2023-04-24T09:28:50;11.73;;;1.65;;
26042;SDS011;13818;52.156;5.382;2023-04-24T09:31:18;6.93;;;2.17;;
26042;SDS011;13818;52.156;5.382;2023-04-24T09:33:53;9.70;;;1.80;;
26042;SDS011;13818;52.156;5.382;2023-04-24T09:36:24;6.07;;;1.60;;
26042;SDS011;13818;52.156;5.382;2023-04-24T09:38:55;8.30;;;1.77;;
26042;SDS011;13818;52.156;5.382;2023-04-24T09:41:24;7.60;;;1.50;;
26042;SDS011;13818;52.156;5.382;2023-04-24T09:43:52;6.07;;;1.40;;
26042;SDS011;13818;52.156;5.382;2023-04-24T09:46:19;8.57;;;2.10;;
26042;SDS011;13818;52.156;5.382;2023-04-24T09:48:47;6.82;;;1.95;;
26042;SDS011;13818;52.156;5.382;2023-04-24T09:51:14;8.90;;;2.10;;
26042;SDS011;13818;52.156;5.382;2023-04-24T09:53:44;6.07;;;2.05;;
26042;SDS011;13818;52.156;5.382;2023-04-24T09:56:13;15.15;;;2.25;;
26042;SDS011;13818;52.156;5.382;2023-04-24T09:58:39;7.55;;;1.55;;
26042;SDS011;13818;52.156;5.382;2023-04-24T10:01:06;14.68;;;2.38;;
26042;SDS011;13818;52.156;5.382;2023-04-24T10:03:33;11.95;;;2.38;;
26042;SDS011;13818;52.156;5.382;2023-04-24T10:06:00;6.45;;;1.65;;
26042;SDS011;13818;52.156;5.382;2023-04-24T10:08:27;5.22;;;1.27;;
26042;SDS011;13818;52.156;5.382;2023-04-24T10:10:59;11.95;;;1.60;;
26042;SDS011;13818;52.156;5.382;2023-04-24T10:13:27;5.93;;;1.13;;
26042;SDS011;13818;52.156;5.382;2023-04-24T10:15:54;11.05;;;1.65;;
26042;SDS011;13818;52.156;5.382;2023-04-24T10:18:22;15.57;;;1.40;;
26042;SDS011;13818;52.156;5.382;2023-04-24T10:20:51;6.05;;;1.40;;
26042;SDS011;13818;52.156;5.382;2023-04-24T10:23:19;2.03;;;1.10;;
26042;SDS011;13818;52.156;5.382;2023-04-24T10:25:46;9.02;;;1.45;;
26042;SDS011;13818;52.156;5.382;2023-04-24T10:28:16;4.72;;;1.42;;
26042;SDS011;13818;52.156;5.382;2023-04-24T10:30:46;4.22;;;0.82;;
26042;SDS011;13818;52.156;5.382;2023-04-24T10:33:13;3.30;;;0.70;;
26042;SDS011;13818;52.156;5.382;2023-04-24T10:35:41;4.47;;;0.88;;
26042;SDS011;13818;52.156;5.382;2023-04-24T10:38:11;2.90;;;0.70;;
26042;SDS011;13818;52.156;5.382;2023-04-24T10:40:39;4.20;;;0.80;;
26042;SDS011;13818;52.156;5.382;2023-04-24T10:43:06;4.32;;;0.88;;
26042;SDS011;13818;52.156;5.382;2023-04-24T10:45:36;1.90;;;0.70;;
26042;SDS011;13818;52.156;5.382;2023-04-24T10:48:04;1.08;;;0.50;;
26042;SDS011;13818;52.156;5.382;2023-04-24T10:50:42;2.17;;;0.57;;
26042;SDS011;13818;52.156;5.382;2023-04-24T10:53:13;5.30;;;0.98;;
26042;SDS011;13818;52.156;5.382;2023-04-24T10:55:42;5.43;;;0.77;;
26042;SDS011;13818;52.156;5.382;2023-04-24T11:00:38;3.58;;;1.05;;
26042;SDS011;13818;52.156;5.382;2023-04-24T11:03:09;2.67;;;0.60;;
26042;SDS011;13818;52.156;5.382;2023-04-24T11:05:50;6.97;;;0.80;;
26042;SDS011;13818;52.156;5.382;2023-04-24T11:08:22;7.55;;;0.85;;
26042;SDS011;13818;52.156;5.382;2023-04-24T11:10:54;2.55;;;0.50;;
26042;SDS011;13818;52.156;5.382;2023-04-24T11:13:23;3.80;;;0.70;;
26042;SDS011;13818;52.156;5.382;2023-04-24T11:18:41;3.95;;;0.82;;
26042;SDS011;13818;52.156;5.382;2023-04-24T11:21:11;2.83;;;1.10;;
26042;SDS011;13818;52.156;5.382;2023-04-24T11:23:39;5.20;;;1.17;;
26042;SDS011;13818;52.156;5.382;2023-04-24T11:26:12;6.60;;;1.05;;
26042;SDS011;13818;52.156;5.382;2023-04-24T11:28:46;4.90;;;1.17;;
26042;SDS011;13818;52.156;5.382;2023-04-24T11:34:11;6.28;;;0.63;;
26042;SDS011;13818;52.156;5.382;2023-04-24T11:36:40;6.32;;;0.63;;
26042;SDS011;13818;52.156;5.382;2023-04-24T11:41:36;3.00;;;0.50;;
26042;SDS011;13818;52.156;5.382;2023-04-24T11:44:05;2.42;;;0.60;;
26042;SDS011;13818;52.156;5.382;2023-04-24T11:46:32;3.85;;;0.60;;
26042;SDS011;13818;52.156;5.382;2023-04-24T11:48:59;2.90;;;0.70;;
26042;SDS011;13818;52.156;5.382;2023-04-24T11:51:27;1.75;;;0.50;;
26042;SDS011;13818;52.156;5.382;2023-04-24T11:53:55;2.03;;;0.47;;
26042;SDS011;13818;52.156;5.382;2023-04-24T11:56:22;3.63;;;0.80;;
26042;SDS011;13818;52.156;5.382;2023-04-24T11:58:51;5.72;;;1.08;;
26042;SDS011;13818;52.156;5.382;2023-04-24T12:01:19;2.38;;;0.50;;
26042;SDS011;13818;52.156;5.382;2023-04-24T12:03:47;2.95;;;0.82;;
26042;SDS011;13818;52.156;5.382;2023-04-24T12:06:15;7.80;;;0.45;;
26042;SDS011;13818;52.156;5.382;2023-04-24T12:08:46;3.95;;;0.43;;
26042;SDS011;13818;52.156;5.382;2023-04-24T12:11:14;1.42;;;0.40;;
26042;SDS011;13818;52.156;5.382;2023-04-24T12:13:43;5.30;;;0.52;;
26042;SDS011;13818;52.156;5.382;2023-04-24T12:16:10;1.52;;;0.40;;
26042;SDS011;13818;52.156;5.382;2023-04-24T12:18:41;2.30;;;0.77;;
26042;SDS011;13818;52.156;5.382;2023-04-24T12:21:15;7.28;;;0.63;;
26042;SDS011;13818;52.156;5.382;2023-04-24T12:23:47;5.35;;;0.60;;
26042;SDS011;13818;52.156;5.382;2023-04-24T12:26:16;6.07;;;0.60;;
26042;SDS011;13818;52.156;5.382;2023-04-24T12:28:45;6.13;;;0.95;;
26042;SDS011;13818;52.156;5.382;2023-04-24T12:31:13;4.93;;;0.60;;
26042;SDS011;13818;52.156;5.382;2023-04-24T12:33:39;3.85;;;1.02;;
26042;SDS011;13818;52.156;5.382;2023-04-24T12:36:06;5.10;;;0.70;;
26042;SDS011;13818;52.156;5.382;2023-04-24T12:41:07;5.03;;;0.70;;
26042;SDS011;13818;52.156;5.382;2023-04-24T12:43:35;8.13;;;1.30;;
26042;SDS011;13818;52.156;5.382;2023-04-24T12:46:03;6.05;;;1.05;;
26042;SDS011;13818;52.156;5.382;2023-04-24T12:48:30;7.60;;;1.00;;
26042;SDS011;13818;52.156;5.382;2023-04-24T12:50:57;6.85;;;1.80;;
26042;SDS011;13818;52.156;5.382;2023-04-24T12:53:26;4.50;;;0.88;;
26042;SDS011;13818;52.156;5.382;2023-04-24T12:55:55;7.32;;;0.98;;
26042;SDS011;13818;52.156;5.382;2023-04-24T12:58:23;3.80;;;1.00;;
26042;SDS011;13818;52.156;5.382;2023-04-24T13:00:50;8.55;;;1.75;;
26042;SDS011;13818;52.156;5.382;2023-04-24T13:03:16;4.93;;;1.00;;
26042;SDS011;13818;52.156;5.382;2023-04-24T13:05:43;5.95;;;1.35;;
26042;SDS011;13818;52.156;5.382;2023-04-24T13:08:10;9.27;;;1.38;;
26042;SDS011;13818;52.156;5.382;2023-04-24T13:10:38;10.35;;;1.48;;
26042;SDS011;13818;52.156;5.382;2023-04-24T13:13:06;7.40;;;1.40;;
26042;SDS011;13818;52.156;5.382;2023-04-24T13:15:34;9.52;;;1.65;;
26042;SDS011;13818;52.156;5.382;2023-04-24T13:18:00;9.77;;;1.40;;
26042;SDS011;13818;52.156;5.382;2023-04-24T13:20:27;5.47;;;1.50;;
26042;SDS011;13818;52.156;5.382;2023-04-24T13:22:54;10.25;;;1.45;;
26042;SDS011;13818;52.156;5.382;2023-04-24T13:25:20;6.95;;;1.25;;
26042;SDS011;13818;52.156;5.382;2023-04-24T13:27:48;7.30;;;1.38;;
26042;SDS011;13818;52.156;5.382;2023-04-24T13:30:15;7.85;;;1.55;;
26042;SDS011;13818;52.156;5.382;2023-04-24T13:32:43;10.90;;;1.90;;
26042;SDS011;13818;52.156;5.382;2023-04-24T13:35:10;16.33;;;2.22;;
26042;SDS011;13818;52.156;5.382;2023-04-24T13:37:37;9.38;;;1.98;;
26042;SDS011;13818;52.156;5.382;2023-04-24T13:40:04;6.72;;;1.05;;
26042;SDS011;13818;52.156;5.382;2023-04-24T13:42:32;6.43;;;1.33;;
26042;SDS011;13818;52.156;5.382;2023-04-24T13:44:58;8.57;;;1.48;;
26042;SDS011;13818;52.156;5.382;2023-04-24T13:47:25;5.97;;;1.90;;
26042;SDS011;13818;52.156;5.382;2023-04-24T13:49:53;10.52;;;2.17;;
26042;SDS011;13818;52.156;5.382;2023-04-24T13:52:20;7.10;;;2.10;;
26042;SDS011;13818;52.156;5.382;2023-04-24T13:54:47;10.25;;;2.00;;
26042;SDS011;13818;52.156;5.382;2023-04-24T13:57:14;9.70;;;1.80;;
26042;SDS011;13818;52.156;5.382;2023-04-24T13:59:41;11.85;;;2.72;;
26042;SDS011;13818;52.156;5.382;2023-04-24T14:02:08;8.70;;;2.58;;
26042;SDS011;13818;52.156;5.382;2023-04-24T14:04:35;7.15;;;1.80;;
26042;SDS011;13818;52.156;5.382;2023-04-24T14:07:03;9.30;;;2.00;;
26042;SDS011;13818;52.156;5.382;2023-04-24T14:09:30;6.13;;;2.30;;
26042;SDS011;13818;52.156;5.382;2023-04-24T14:11:57;7.05;;;1.60;;
26042;SDS011;13818;52.156;5.382;2023-04-24T14:14:23;8.38;;;1.70;;
26042;SDS011;13818;52.156;5.382;2023-04-24T14:16:50;8.43;;;1.98;;
26042;SDS011;13818;52.156;5.382;2023-04-24T14:19:16;12.70;;;2.38;;
26042;SDS011;13818;52.156;5.382;2023-04-24T14:21:43;10.13;;;2.45;;
26042;SDS011;13818;52.156;5.382;2023-04-24T14:24:11;7.97;;;1.92;;
26042;SDS011;13818;52.156;5.382;2023-04-24T14:26:37;8.98;;;2.30;;
26042;SDS011;13818;52.156;5.382;2023-04-24T14:29:04;14.10;;;2.35;;
26042;SDS011;13818;52.156;5.382;2023-04-24T14:31:31;7.97;;;1.83;;
26042;SDS011;13818;52.156;5.382;2023-04-24T14:33:57;8.45;;;1.92;;
26042;SDS011;13818;52.156;5.382;2023-04-24T14:36:23;13.05;;;2.00;;
26042;SDS011;13818;52.156;5.382;2023-04-24T14:38:50;7.35;;;2.67;;
26042;SDS011;13818;52.156;5.382;2023-04-24T14:41:18;8.20;;;1.95;;
26042;SDS011;13818;52.156;5.382;2023-04-24T14:43:45;11.80;;;2.13;;
26042;SDS011;13818;52.156;5.382;2023-04-24T14:46:11;9.20;;;2.15;;
26042;SDS011;13818;52.156;5.382;2023-04-24T14:48:38;9.40;;;2.10;;
26042;SDS011;13818;52.156;5.382;2023-04-24T14:51:05;8.10;;;3.00;;
26042;SDS011;13818;52.156;5.382;2023-04-24T14:53:32;18.45;;;2.58;;
26042;SDS011;13818;52.156;5.382;2023-04-24T14:55:59;13.32;;;2.35;;
26042;SDS011;13818;52.156;5.382;2023-04-24T14:58:26;6.20;;;1.60;;
26042;SDS011;13818;52.156;5.382;2023-04-24T15:00:53;12.23;;;2.55;;
26042;SDS011;13818;52.156;5.382;2023-04-24T15:03:20;13.48;;;2.53;;